ENGM/OSL METAR and TAF weather

Enter ICAO airport designator
Station Type Date Time Source
ENGM METAR 2019/08/24 20:50 UTC NOAA

ENGM 242050Z 20006KT CAVOK 16/12 Q1024 NOSIG


Station Type Date Time Source
ENGM Decoded METAR 2019/08/24 20:50 UTC NOAA

Station name not available
Aug 24, 2019 - 04:50 PM EDT / 2019.08.24 2050 UTC
Wind: from the SSW (200 degrees) at 7 MPH (6 KT):0
Visibility: greater than 7 mile(s):0
Temperature: 60 F (16 C)
Dew Point: 53 F (12 C)
Relative Humidity: 77%
Pressure (altimeter): 30.24 in. Hg (1024 hPa)
ob: ENGM 242050Z 20006KT CAVOK 16/12 Q1024 NOSIG
cycle: 21

Station Type Date Time Source
ENGM TAF 2019/08/24 18:57 UTC NOAA

TAF ENGM 241700Z 2418/2518 20007KT 9999 FEW030 SCT120
BECMG 2422/2424 BKN008 PROB30 2500/2507 3000 BR OVC002
BECMG 2508/2510 FEW012

Example: see airport list